createdAt,value
2023-05-05T00:00:58.119Z,14.37
2023-05-05T00:03:25.575Z,14.35
2023-05-05T00:05:54.468Z,14.30
2023-05-05T00:08:22.166Z,14.39
2023-05-05T00:10:50.678Z,14.38
2023-05-05T00:13:18.081Z,14.33
2023-05-05T00:15:46.212Z,14.31
2023-05-05T00:18:15.982Z,14.24
2023-05-05T00:20:43.732Z,14.26
2023-05-05T00:23:10.725Z,14.13
2023-05-05T00:25:37.736Z,13.97
2023-05-05T00:28:04.952Z,13.99
2023-05-05T00:30:31.962Z,13.96
2023-05-05T00:32:59.031Z,13.99
2023-05-05T00:35:27.314Z,13.85
2023-05-05T00:37:55.129Z,13.66
2023-05-05T00:40:22.194Z,13.53
2023-05-05T00:42:52.503Z,13.53
2023-05-05T00:45:19.961Z,13.59
2023-05-05T00:47:52.540Z,13.54
2023-05-05T00:50:26.855Z,13.45
2023-05-05T00:52:58.807Z,13.39
2023-05-05T00:55:26.275Z,13.31
2023-05-05T00:57:53.488Z,13.14
2023-05-05T01:00:20.475Z,13.06
2023-05-05T01:02:47.628Z,13.00
2023-05-05T01:05:15.155Z,13.15
2023-05-05T01:08:19.611Z,13.14
2023-05-05T01:10:52.592Z,12.94
2023-05-05T01:13:31.866Z,12.82
2023-05-05T01:16:12.650Z,12.86
2023-05-05T01:19:05.880Z,12.84
2023-05-05T01:21:36.330Z,13.01
2023-05-05T01:24:45.169Z,13.08
2023-05-05T01:27:55.718Z,13.13
2023-05-05T01:30:46.066Z,13.18
2023-05-05T01:33:15.433Z,13.25
2023-05-05T01:35:52.530Z,13.23
2023-05-05T01:38:22.404Z,13.23
2023-05-05T01:40:52.030Z,13.22
2023-05-05T01:43:20.211Z,13.13
2023-05-05T01:45:47.430Z,13.18
2023-05-05T01:48:16.430Z,13.25
2023-05-05T01:50:43.476Z,13.29
2023-05-05T01:53:10.486Z,13.16
2023-05-05T01:55:37.486Z,13.13
2023-05-05T01:58:04.864Z,13.05
2023-05-05T02:00:32.187Z,13.04
2023-05-05T02:02:59.980Z,13.03
2023-05-05T02:05:27.212Z,13.01
2023-05-05T02:07:56.847Z,13.07
2023-05-05T02:10:24.287Z,13.08
2023-05-05T02:12:51.520Z,13.07
2023-05-05T02:15:18.889Z,12.97
2023-05-05T02:17:45.865Z,13.04
2023-05-05T02:20:13.188Z,13.13
2023-05-05T02:22:40.459Z,13.15
2023-05-05T02:25:08.206Z,13.03
2023-05-05T02:27:35.626Z,12.97
2023-05-05T02:30:05.037Z,12.88
2023-05-05T02:32:34.914Z,12.98
2023-05-05T02:35:07.351Z,13.06
2023-05-05T02:37:36.560Z,12.93
2023-05-05T02:40:05.457Z,12.89
2023-05-05T02:42:39.514Z,12.85
2023-05-05T02:45:14.563Z,12.90
2023-05-05T02:47:45.428Z,12.79
2023-05-05T02:50:12.933Z,12.83
2023-05-05T02:52:46.067Z,12.82
2023-05-05T02:55:15.606Z,12.83
2023-05-05T02:58:06.790Z,12.84
2023-05-05T03:00:58.174Z,12.82
2023-05-05T03:03:46.896Z,12.76
2023-05-05T03:06:21.275Z,12.66
2023-05-05T03:09:34.798Z,12.58
2023-05-05T03:12:06.725Z,12.60
2023-05-05T03:14:44.051Z,12.56
2023-05-05T03:17:14.298Z,12.62
2023-05-05T03:19:42.069Z,12.60
2023-05-05T03:22:09.171Z,12.61
2023-05-05T03:24:37.836Z,12.71
2023-05-05T03:27:08.621Z,12.70
2023-05-05T03:29:38.492Z,12.73
2023-05-05T03:32:09.666Z,12.72
2023-05-05T03:34:37.916Z,12.68
2023-05-05T03:37:06.090Z,12.72
2023-05-05T03:39:33.449Z,12.72
2023-05-05T03:42:00.794Z,12.49
2023-05-05T03:44:31.615Z,12.32
2023-05-05T03:46:58.659Z,12.16
2023-05-05T03:49:26.878Z,12.16
2023-05-05T03:51:54.352Z,12.17
2023-05-05T03:54:21.410Z,12.12
2023-05-05T03:56:48.381Z,12.22
2023-05-05T03:59:16.087Z,12.21
2023-05-05T04:01:45.139Z,12.26
2023-05-05T04:04:12.477Z,12.38
2023-05-05T04:06:39.583Z,12.35
2023-05-05T04:09:07.273Z,12.27
2023-05-05T04:11:34.277Z,12.35
2023-05-05T04:14:01.388Z,12.44
2023-05-05T04:16:31.143Z,12.48
2023-05-05T04:18:59.330Z,12.41
2023-05-05T04:21:27.201Z,12.44
2023-05-05T04:23:54.295Z,12.50
2023-05-05T04:26:22.291Z,12.50
2023-05-05T04:28:49.674Z,12.56
2023-05-05T04:31:18.230Z,12.69
2023-05-05T04:33:46.427Z,12.42
2023-05-05T04:36:14.125Z,12.52
2023-05-05T04:38:41.696Z,12.74
2023-05-05T04:41:08.781Z,12.85
2023-05-05T04:43:37.882Z,13.03
2023-05-05T04:46:05.210Z,13.21
2023-05-05T04:48:34.510Z,13.32
2023-05-05T04:51:07.117Z,13.44
2023-05-05T04:53:34.857Z,13.37
2023-05-05T04:56:02.182Z,12.66
2023-05-05T04:58:29.230Z,12.57
2023-05-05T05:00:56.304Z,13.09
2023-05-05T05:03:23.537Z,13.27
2023-05-05T05:05:50.714Z,13.69
2023-05-05T05:08:17.873Z,14.03
2023-05-05T05:10:45.031Z,14.37
2023-05-05T05:13:12.852Z,14.62
2023-05-05T05:15:40.857Z,14.81
2023-05-05T05:18:08.154Z,14.98
2023-05-05T05:20:35.424Z,14.26
2023-05-05T05:23:02.557Z,14.38
2023-05-05T05:25:31.116Z,14.95
2023-05-05T05:28:08.914Z,15.18
2023-05-05T05:30:41.425Z,13.82
2023-05-05T05:33:10.791Z,13.93
2023-05-05T05:35:38.734Z,14.25
2023-05-05T05:38:06.450Z,14.45
2023-05-05T05:40:33.800Z,14.72
2023-05-05T05:43:01.060Z,14.60
2023-05-05T05:45:28.739Z,14.81
2023-05-05T05:47:55.914Z,14.41
2023-05-05T05:50:24.540Z,13.62
2023-05-05T05:52:51.934Z,13.61
2023-05-05T05:55:19.531Z,13.58
2023-05-05T05:57:46.509Z,13.78
2023-05-05T06:00:15.850Z,13.63
2023-05-05T06:02:48.372Z,13.64
2023-05-05T06:05:18.780Z,13.93
2023-05-05T06:07:47.010Z,13.44
2023-05-05T06:10:26.560Z,13.53
2023-05-05T06:12:59.710Z,13.04
2023-05-05T06:15:26.989Z,13.02
2023-05-05T06:17:54.240Z,13.69
2023-05-05T06:20:22.490Z,14.98
2023-05-05T06:22:49.561Z,14.34
2023-05-05T06:25:17.210Z,14.08
2023-05-05T06:27:44.810Z,14.41
2023-05-05T06:30:12.224Z,15.44
2023-05-05T06:32:39.418Z,15.23
2023-05-05T06:35:07.261Z,15.33
2023-05-05T06:37:34.271Z,16.15
2023-05-05T06:40:01.379Z,16.33
2023-05-05T06:42:28.579Z,16.61
2023-05-05T06:44:58.189Z,17.55
2023-05-05T06:47:25.439Z,18.36
2023-05-05T06:49:52.411Z,17.13
2023-05-05T06:52:19.456Z,15.95
2023-05-05T06:54:46.397Z,16.59
2023-05-05T06:57:13.419Z,16.60
2023-05-05T06:59:40.476Z,16.30
2023-05-05T07:02:07.602Z,16.41
2023-05-05T07:04:34.676Z,16.98
2023-05-05T07:07:01.952Z,17.69
2023-05-05T07:09:29.031Z,17.59
2023-05-05T07:11:56.099Z,18.01
2023-05-05T07:14:24.496Z,17.99
2023-05-05T07:16:51.750Z,18.31
2023-05-05T07:19:18.830Z,17.66
2023-05-05T07:21:47.329Z,16.82
2023-05-05T07:24:14.281Z,17.07
2023-05-05T07:26:41.267Z,17.72
2023-05-05T07:29:08.214Z,19.09
2023-05-05T07:31:35.249Z,18.92
2023-05-05T07:34:02.237Z,19.36
2023-05-05T07:36:29.277Z,19.69
2023-05-05T07:38:56.323Z,18.97
2023-05-05T07:41:23.742Z,18.50
2023-05-05T07:43:51.011Z,19.47
2023-05-05T07:46:18.375Z,19.30
2023-05-05T07:48:45.544Z,20.02
2023-05-05T07:51:12.587Z,20.75
2023-05-05T07:53:41.098Z,19.23
2023-05-05T07:56:09.068Z,18.79
2023-05-05T07:58:36.338Z,19.24
2023-05-05T08:01:06.034Z,18.64
2023-05-05T08:03:33.420Z,19.10
2023-05-05T08:06:06.796Z,19.36
2023-05-05T08:08:33.877Z,18.98
2023-05-05T08:11:01.351Z,19.53
2023-05-05T08:13:28.767Z,19.94
2023-05-05T08:15:56.330Z,21.15
2023-05-05T08:18:24.530Z,21.24
2023-05-05T08:20:52.992Z,21.61
2023-05-05T08:23:20.078Z,21.58
2023-05-05T08:25:47.124Z,21.70
2023-05-05T08:28:14.090Z,21.74
2023-05-05T08:30:41.460Z,22.06
2023-05-05T08:33:08.530Z,20.66
2023-05-05T08:35:35.486Z,19.61
2023-05-05T08:38:02.570Z,19.75
2023-05-05T08:40:33.048Z,19.87
2023-05-05T08:43:01.021Z,19.91
2023-05-05T08:45:31.201Z,20.75
2023-05-05T08:48:02.917Z,20.39
2023-05-05T08:50:30.462Z,20.63
2023-05-05T08:53:03.278Z,20.72
2023-05-05T08:55:34.301Z,21.01
2023-05-05T08:58:04.213Z,21.53
2023-05-05T09:00:31.343Z,22.70
2023-05-05T09:02:59.185Z,23.04
2023-05-05T09:05:26.575Z,22.00
2023-05-05T09:07:53.579Z,21.99
2023-05-05T09:10:21.041Z,22.94
2023-05-05T09:12:50.448Z,23.35
2023-05-05T09:15:17.458Z,23.36
2023-05-05T09:17:44.667Z,22.76
2023-05-05T09:20:12.749Z,22.97
2023-05-05T09:22:47.024Z,22.21
2023-05-05T09:25:15.166Z,21.82
2023-05-05T09:27:43.501Z,21.50
2023-05-05T09:30:11.120Z,22.92
2023-05-05T09:32:49.885Z,23.52
2023-05-05T09:35:17.491Z,22.24
2023-05-05T09:37:44.543Z,22.57
2023-05-05T09:40:13.312Z,22.66
2023-05-05T09:42:40.547Z,21.91
2023-05-05T09:45:27.950Z,22.68
2023-05-05T09:47:59.839Z,23.05
2023-05-05T09:50:30.424Z,22.88
2023-05-05T09:52:58.613Z,22.53
2023-05-05T09:55:26.009Z,22.15
2023-05-05T09:57:53.155Z,23.10
2023-05-05T10:00:20.615Z,23.66
2023-05-05T10:02:47.619Z,23.89
2023-05-05T10:05:16.028Z,24.46
2023-05-05T10:07:44.710Z,24.83
2023-05-05T10:10:16.679Z,25.31
2023-05-05T10:12:44.249Z,24.58
2023-05-05T10:15:11.739Z,24.72
2023-05-05T10:20:18.702Z,24.99
2023-05-05T10:22:53.447Z,23.01
2023-05-05T10:25:29.756Z,23.86
2023-05-05T10:27:59.388Z,23.29
2023-05-05T10:30:31.873Z,23.98
2023-05-05T10:33:22.665Z,24.24
2023-05-05T10:35:51.685Z,24.09
2023-05-05T10:38:18.665Z,24.46
2023-05-05T10:40:46.004Z,24.97
2023-05-05T10:43:14.223Z,25.65
2023-05-05T10:45:41.890Z,25.09
2023-05-05T10:48:19.012Z,25.39
2023-05-05T10:50:49.967Z,25.34
2023-05-05T10:53:28.883Z,25.56
2023-05-05T10:56:06.532Z,25.03
2023-05-05T10:58:43.728Z,25.87
2023-05-05T11:01:34.992Z,25.90
2023-05-05T11:04:17.271Z,26.32
2023-05-05T11:07:11.801Z,26.34
2023-05-05T11:10:14.662Z,25.68
2023-05-05T11:13:02.956Z,26.33
2023-05-05T11:15:30.400Z,27.00
2023-05-05T11:18:03.204Z,26.26
2023-05-05T11:20:40.889Z,26.19
2023-05-05T11:23:07.902Z,25.50
2023-05-05T11:25:39.125Z,25.63
2023-05-05T11:28:12.071Z,25.44
2023-05-05T11:31:17.746Z,26.38
2023-05-05T11:33:44.979Z,25.81
2023-05-05T11:36:15.730Z,26.12
2023-05-05T11:39:01.664Z,25.85
2023-05-05T11:41:32.057Z,25.18
2023-05-05T11:44:18.281Z,25.65
2023-05-05T11:46:51.366Z,26.41
2023-05-05T11:49:27.945Z,25.59
2023-05-05T11:51:58.016Z,25.85
2023-05-05T11:54:25.401Z,26.03
2023-05-05T11:56:53.851Z,26.16
2023-05-05T11:59:21.056Z,24.32
2023-05-05T12:01:48.031Z,25.41
2023-05-05T12:04:15.372Z,25.92
2023-05-05T12:06:42.709Z,25.68
2023-05-05T12:09:16.179Z,25.58
2023-05-05T12:11:49.938Z,26.67
2023-05-05T12:14:17.028Z,25.87
2023-05-05T12:17:13.090Z,24.59
2023-05-05T12:19:53.565Z,25.16
2023-05-05T12:22:27.064Z,24.73
2023-05-05T12:24:55.130Z,25.19
2023-05-05T12:27:22.344Z,25.27
2023-05-05T12:29:49.430Z,25.19
2023-05-05T12:32:29.315Z,25.79
2023-05-05T12:34:57.595Z,26.50
2023-05-05T12:37:25.624Z,26.04
2023-05-05T12:39:54.905Z,25.53
2023-05-05T12:42:22.280Z,26.34
2023-05-05T12:44:49.298Z,26.46
2023-05-05T12:47:30.479Z,27.38
2023-05-05T12:49:57.739Z,27.05
2023-05-05T12:52:24.742Z,26.73
2023-05-05T12:55:00.630Z,26.70
2023-05-05T12:57:27.657Z,26.00
2023-05-05T12:59:54.701Z,25.16
2023-05-05T13:02:21.753Z,25.05
2023-05-05T13:04:53.296Z,25.38
2023-05-05T13:07:21.330Z,24.45
2023-05-05T13:09:49.078Z,25.77
2023-05-05T13:12:18.561Z,26.53
2023-05-05T13:14:46.726Z,26.46
2023-05-05T13:17:14.122Z,26.65
2023-05-05T13:19:46.624Z,26.29
2023-05-05T13:22:13.851Z,26.78
2023-05-05T13:24:50.676Z,27.45
2023-05-05T13:27:19.353Z,27.24
2023-05-05T13:29:46.784Z,26.10
2023-05-05T13:32:13.829Z,25.89
2023-05-05T13:34:41.567Z,24.91
2023-05-05T13:37:08.804Z,24.96
2023-05-05T13:39:36.987Z,25.17
2023-05-05T13:42:04.202Z,25.67
2023-05-05T13:44:31.475Z,26.08
2023-05-05T13:46:58.647Z,25.10
2023-05-05T13:49:25.839Z,25.81
2023-05-05T13:51:52.837Z,26.10
2023-05-05T13:54:19.844Z,26.55
2023-05-05T13:56:47.028Z,25.76
2023-05-05T13:59:14.109Z,25.82
2023-05-05T14:01:41.339Z,25.55
2023-05-05T14:04:08.537Z,25.31
2023-05-05T14:06:36.260Z,26.30
2023-05-05T14:09:05.932Z,25.85
2023-05-05T14:11:33.327Z,26.31
2023-05-05T14:14:00.761Z,25.58
2023-05-05T14:16:27.761Z,26.26
2023-05-05T14:18:54.767Z,26.19
2023-05-05T14:21:23.719Z,26.08
2023-05-05T14:23:51.166Z,25.01
2023-05-05T14:26:18.173Z,24.15
2023-05-05T14:28:46.729Z,23.88
2023-05-05T14:31:15.330Z,24.12
2023-05-05T14:33:45.331Z,23.03
2023-05-05T14:36:12.669Z,22.98
2023-05-05T14:38:39.676Z,22.74
2023-05-05T14:41:06.769Z,22.93
2023-05-05T14:43:33.801Z,23.31
2023-05-05T14:46:05.784Z,22.92
2023-05-05T14:48:33.736Z,22.55
2023-05-05T14:51:00.827Z,22.84
2023-05-05T14:53:27.773Z,23.02
2023-05-05T14:55:54.968Z,23.17
2023-05-05T14:58:24.623Z,23.24
2023-05-05T15:00:52.893Z,22.96
2023-05-05T15:03:20.047Z,22.93
2023-05-05T15:05:47.149Z,22.75
2023-05-05T15:08:14.634Z,23.08
2023-05-05T15:10:41.572Z,23.23
2023-05-05T15:13:08.754Z,23.37
2023-05-05T15:15:35.972Z,23.56
2023-05-05T15:18:03.074Z,22.71
2023-05-05T15:20:30.065Z,22.92
2023-05-05T15:22:57.344Z,23.12
2023-05-05T15:25:24.326Z,22.49
2023-05-05T15:27:51.535Z,22.60
2023-05-05T15:30:18.537Z,22.62
2023-05-05T15:32:45.641Z,22.65
2023-05-05T15:35:13.024Z,22.74
2023-05-05T15:37:40.908Z,22.88
2023-05-05T15:40:08.661Z,22.94
2023-05-05T15:42:35.891Z,22.99
2023-05-05T15:45:03.040Z,22.69
2023-05-05T15:47:31.387Z,22.87
2023-05-05T15:49:58.358Z,22.78
2023-05-05T15:52:25.424Z,22.42
2023-05-05T15:54:52.449Z,22.16
2023-05-05T15:57:19.548Z,21.90
2023-05-05T15:59:46.576Z,21.58
2023-05-05T16:02:13.727Z,21.53
2023-05-05T16:04:40.804Z,21.56
2023-05-05T16:07:07.784Z,21.66
2023-05-05T16:09:34.765Z,21.85
2023-05-05T16:12:02.765Z,21.79
2023-05-05T16:14:32.194Z,21.65
2023-05-05T16:16:59.334Z,22.04
2023-05-05T16:19:30.158Z,21.69
2023-05-05T16:21:57.231Z,21.85
2023-05-05T16:24:24.218Z,21.70
2023-05-05T16:26:51.550Z,21.63
2023-05-05T16:29:18.637Z,22.08
2023-05-05T16:31:45.676Z,21.73
2023-05-05T16:34:12.714Z,21.72
2023-05-05T16:36:39.703Z,21.62
2023-05-05T16:39:07.097Z,22.00
2023-05-05T16:41:34.475Z,22.07
2023-05-05T16:44:01.480Z,21.93
2023-05-05T16:46:28.485Z,22.99
2023-05-05T16:48:55.733Z,23.02
2023-05-05T16:51:22.723Z,22.98
2023-05-05T16:53:49.901Z,23.35
2023-05-05T16:56:16.914Z,23.23
2023-05-05T16:58:43.940Z,22.86
2023-05-05T17:01:11.022Z,23.03
2023-05-05T17:03:39.129Z,23.40
2023-05-05T17:06:06.217Z,23.68
2023-05-05T17:08:33.212Z,23.89
2023-05-05T17:11:00.258Z,24.12
2023-05-05T17:13:27.306Z,24.08
2023-05-05T17:15:54.327Z,24.21
2023-05-05T17:18:22.788Z,24.56
2023-05-05T17:20:50.268Z,24.59
2023-05-05T17:23:17.320Z,24.87
2023-05-05T17:25:44.364Z,24.94
2023-05-05T17:28:11.807Z,25.25
2023-05-05T17:30:38.748Z,25.28
2023-05-05T17:33:05.761Z,24.89
2023-05-05T17:35:32.945Z,24.88
2023-05-05T17:37:59.944Z,24.84
2023-05-05T17:40:27.126Z,24.94
2023-05-05T17:42:54.441Z,24.89
2023-05-05T17:45:21.411Z,24.84
2023-05-05T17:47:48.527Z,24.68
2023-05-05T17:50:15.500Z,24.60
2023-05-05T17:52:45.083Z,24.50
2023-05-05T17:55:12.673Z,24.35
2023-05-05T17:57:39.862Z,24.29
2023-05-05T18:00:07.374Z,24.18
2023-05-05T18:02:40.555Z,24.07
2023-05-05T18:05:08.763Z,24.07
2023-05-05T18:07:36.010Z,23.89
2023-05-05T18:10:03.036Z,23.90
2023-05-05T18:12:30.660Z,23.62
2023-05-05T18:14:57.653Z,23.87
2023-05-05T18:17:24.613Z,23.85
2023-05-05T18:19:51.648Z,23.88
2023-05-05T18:22:18.630Z,23.52
2023-05-05T18:24:46.457Z,23.02
2023-05-05T18:27:13.452Z,22.83
2023-05-05T18:29:40.536Z,21.99
2023-05-05T18:32:07.561Z,22.36
2023-05-05T18:34:34.766Z,21.28
2023-05-05T18:37:02.015Z,20.80
2023-05-05T18:39:29.166Z,21.56
2023-05-05T18:41:56.300Z,22.11
2023-05-05T18:44:23.384Z,22.81
2023-05-05T18:46:50.678Z,23.18
2023-05-05T18:49:17.743Z,22.99
2023-05-05T18:51:44.881Z,23.02
2023-05-05T18:54:12.023Z,23.05
2023-05-05T18:56:39.072Z,22.17
2023-05-05T18:59:06.217Z,21.73
2023-05-05T19:01:33.364Z,21.09
2023-05-05T19:04:00.868Z,20.68
2023-05-05T19:06:28.051Z,19.95
2023-05-05T19:08:56.797Z,19.96
2023-05-05T19:11:24.296Z,19.86
2023-05-05T19:13:51.442Z,20.04
2023-05-05T19:16:18.577Z,20.08
2023-05-05T19:18:45.971Z,20.33
2023-05-05T19:21:13.024Z,20.55
2023-05-05T19:23:41.033Z,20.29
2023-05-05T19:26:08.155Z,18.92
2023-05-05T19:28:35.256Z,18.53
2023-05-05T19:31:02.343Z,18.03
2023-05-05T19:33:29.442Z,16.71
2023-05-05T19:35:56.638Z,16.97
2023-05-05T19:38:23.866Z,17.05
2023-05-05T19:40:51.123Z,17.66
2023-05-05T19:43:18.482Z,18.34
2023-05-05T19:45:46.280Z,16.54
2023-05-05T19:48:13.439Z,16.72
2023-05-05T19:50:40.782Z,16.75
2023-05-05T19:53:08.093Z,16.99
2023-05-05T19:55:35.737Z,16.75
2023-05-05T19:58:02.833Z,15.86
2023-05-05T20:00:30.122Z,16.65
2023-05-05T20:02:57.475Z,17.01
2023-05-05T20:05:24.737Z,16.37
2023-05-05T20:07:51.990Z,17.07
2023-05-05T20:10:19.205Z,16.90
2023-05-05T20:12:48.336Z,17.49
2023-05-05T20:15:19.685Z,17.19
2023-05-05T20:17:47.558Z,17.06
2023-05-05T20:20:20.384Z,17.28
2023-05-05T20:22:47.671Z,18.03
2023-05-05T20:25:18.028Z,17.17
2023-05-05T20:27:45.917Z,16.95
2023-05-05T20:30:13.449Z,16.48
2023-05-05T20:32:41.497Z,15.86
2023-05-05T20:35:09.290Z,16.10
2023-05-05T20:37:36.390Z,16.85
2023-05-05T20:40:07.840Z,17.15
2023-05-05T20:42:35.425Z,17.81
2023-05-05T20:45:02.559Z,18.13
2023-05-05T20:47:30.072Z,18.43
2023-05-05T20:49:57.429Z,17.95
2023-05-05T20:52:24.459Z,18.62
2023-05-05T20:54:51.506Z,19.06
2023-05-05T20:57:18.555Z,19.40
2023-05-05T20:59:45.954Z,19.13
2023-05-05T21:02:13.148Z,17.57
2023-05-05T21:04:40.203Z,17.77
2023-05-05T21:07:07.326Z,18.34
2023-05-05T21:09:37.437Z,18.71
2023-05-05T21:12:04.722Z,16.93
2023-05-05T21:14:31.737Z,16.46
2023-05-05T21:16:58.910Z,16.83
2023-05-05T21:19:25.980Z,17.01
2023-05-05T21:21:53.756Z,17.57
2023-05-05T21:24:21.266Z,17.80
2023-05-05T21:26:48.492Z,18.14
2023-05-05T21:29:15.554Z,18.45
2023-05-05T21:31:42.579Z,18.39
2023-05-05T21:34:09.559Z,18.21
2023-05-05T21:36:37.169Z,17.98
2023-05-05T21:39:04.226Z,17.81
2023-05-05T21:41:31.252Z,17.90
2023-05-05T21:43:58.429Z,18.50
2023-05-05T21:46:25.455Z,18.56
2023-05-05T21:48:52.543Z,18.69
2023-05-05T21:51:19.928Z,18.49
2023-05-05T21:53:46.977Z,17.89
2023-05-05T21:56:14.119Z,18.61
2023-05-05T21:58:41.230Z,18.88
2023-05-05T22:01:08.420Z,19.14
2023-05-05T22:03:35.978Z,18.74
2023-05-05T22:06:21.649Z,18.65
2023-05-05T22:09:07.720Z,17.02
2023-05-05T22:11:34.718Z,17.56
2023-05-05T22:14:01.704Z,18.06
2023-05-05T22:16:28.916Z,18.27
2023-05-05T22:18:55.933Z,18.18
2023-05-05T22:21:22.931Z,17.65
2023-05-05T22:23:50.130Z,18.34
2023-05-05T22:26:17.182Z,17.69
2023-05-05T22:28:44.122Z,17.47
2023-05-05T22:31:11.659Z,18.04
2023-05-05T22:33:38.656Z,18.00
2023-05-05T22:36:05.911Z,18.17
2023-05-05T22:38:32.897Z,18.55
2023-05-05T22:41:00.130Z,18.55
2023-05-05T22:43:27.126Z,18.76
2023-05-05T22:45:54.340Z,18.40
2023-05-05T22:48:21.731Z,18.74
2023-05-05T22:50:48.858Z,19.07
2023-05-05T22:53:15.818Z,18.89
2023-05-05T22:55:43.309Z,18.86
2023-05-05T22:58:10.353Z,18.75
2023-05-05T23:00:37.369Z,18.79
2023-05-05T23:03:04.424Z,18.86
2023-05-05T23:05:31.487Z,18.92
2023-05-05T23:08:01.198Z,18.76
2023-05-05T23:10:29.069Z,18.68
2023-05-05T23:12:56.127Z,18.54
2023-05-05T23:15:23.899Z,18.92
2023-05-05T23:17:51.892Z,19.13
2023-05-05T23:20:19.294Z,19.21
2023-05-05T23:22:46.234Z,19.20
2023-05-05T23:25:13.185Z,19.29
2023-05-05T23:27:41.110Z,19.34
2023-05-05T23:30:09.153Z,19.44
2023-05-05T23:32:36.502Z,19.47
2023-05-05T23:35:04.221Z,19.49
2023-05-05T23:37:31.290Z,19.59
2023-05-05T23:39:58.303Z,19.55
2023-05-05T23:42:25.436Z,19.61
2023-05-05T23:44:52.850Z,19.21
2023-05-05T23:47:19.936Z,19.31
2023-05-05T23:49:47.231Z,19.38
2023-05-05T23:52:14.291Z,19.34
2023-05-05T23:54:41.565Z,19.45
2023-05-05T23:57:08.592Z,19.27
2023-05-05T23:59:35.632Z,19.48
